sensor_id;sensor_type;location;lat;lon;timestamp;P1;durP1;ratioP1;P2;durP2;ratioP2
34019;SDS011;20895;51.034;3.742;2024-03-17T00:02:00;9.15;;;4.57;;
34019;SDS011;20895;51.034;3.742;2024-03-17T00:04:25;5.53;;;4.18;;
34019;SDS011;20895;51.034;3.742;2024-03-17T00:06:52;8.70;;;4.57;;
34019;SDS011;20895;51.034;3.742;2024-03-17T00:09:17;7.90;;;4.30;;
34019;SDS011;20895;51.034;3.742;2024-03-17T00:11:43;9.32;;;4.75;;
34019;SDS011;20895;51.034;3.742;2024-03-17T00:14:09;9.10;;;5.00;;
34019;SDS011;20895;51.034;3.742;2024-03-17T00:16:34;6.60;;;5.03;;
34019;SDS011;20895;51.034;3.742;2024-03-17T00:18:59;8.85;;;5.35;;
34019;SDS011;20895;51.034;3.742;2024-03-17T00:21:24;6.80;;;4.32;;
34019;SDS011;20895;51.034;3.742;2024-03-17T00:23:51;10.05;;;5.07;;
34019;SDS011;20895;51.034;3.742;2024-03-17T00:26:16;6.45;;;4.65;;
34019;SDS011;20895;51.034;3.742;2024-03-17T00:28:44;6.82;;;4.93;;
34019;SDS011;20895;51.034;3.742;2024-03-17T00:31:11;8.07;;;4.78;;
34019;SDS011;20895;51.034;3.742;2024-03-17T00:33:37;8.00;;;5.40;;
34019;SDS011;20895;51.034;3.742;2024-03-17T00:36:02;6.30;;;4.38;;
34019;SDS011;20895;51.034;3.742;2024-03-17T00:38:27;7.13;;;4.65;;
34019;SDS011;20895;51.034;3.742;2024-03-17T00:40:53;8.10;;;4.88;;
34019;SDS011;20895;51.034;3.742;2024-03-17T00:43:18;9.93;;;4.35;;
34019;SDS011;20895;51.034;3.742;2024-03-17T00:45:43;8.65;;;5.35;;
34019;SDS011;20895;51.034;3.742;2024-03-17T00:48:10;9.52;;;5.35;;
34019;SDS011;20895;51.034;3.742;2024-03-17T00:50:35;8.18;;;4.75;;
34019;SDS011;20895;51.034;3.742;2024-03-17T00:53:01;7.97;;;4.78;;
34019;SDS011;20895;51.034;3.742;2024-03-17T00:55:28;7.70;;;5.15;;
34019;SDS011;20895;51.034;3.742;2024-03-17T00:57:53;6.88;;;4.88;;
34019;SDS011;20895;51.034;3.742;2024-03-17T01:00:19;9.60;;;5.38;;
34019;SDS011;20895;51.034;3.742;2024-03-17T01:02:45;16.83;;;5.45;;
34019;SDS011;20895;51.034;3.742;2024-03-17T01:05:11;8.75;;;5.55;;
34019;SDS011;20895;51.034;3.742;2024-03-17T01:07:36;7.00;;;4.82;;
34019;SDS011;20895;51.034;3.742;2024-03-17T01:10:01;6.18;;;4.65;;
34019;SDS011;20895;51.034;3.742;2024-03-17T01:12:27;6.22;;;4.43;;
34019;SDS011;20895;51.034;3.742;2024-03-17T01:14:52;6.72;;;4.53;;
34019;SDS011;20895;51.034;3.742;2024-03-17T01:17:17;7.47;;;4.88;;
34019;SDS011;20895;51.034;3.742;2024-03-17T01:19:44;9.68;;;5.80;;
34019;SDS011;20895;51.034;3.742;2024-03-17T01:22:09;8.30;;;4.72;;
34019;SDS011;20895;51.034;3.742;2024-03-17T01:24:35;7.40;;;5.22;;
34019;SDS011;20895;51.034;3.742;2024-03-17T01:27:00;6.47;;;4.25;;
34019;SDS011;20895;51.034;3.742;2024-03-17T01:29:26;5.43;;;4.30;;
34019;SDS011;20895;51.034;3.742;2024-03-17T01:31:51;7.15;;;4.82;;
34019;SDS011;20895;51.034;3.742;2024-03-17T01:34:18;8.13;;;5.25;;
34019;SDS011;20895;51.034;3.742;2024-03-17T01:36:43;7.13;;;5.80;;
34019;SDS011;20895;51.034;3.742;2024-03-17T01:39:09;7.70;;;5.05;;
34019;SDS011;20895;51.034;3.742;2024-03-17T01:41:34;8.73;;;4.68;;
34019;SDS011;20895;51.034;3.742;2024-03-17T01:44:00;6.03;;;4.35;;
34019;SDS011;20895;51.034;3.742;2024-03-17T01:46:25;10.45;;;5.30;;
34019;SDS011;20895;51.034;3.742;2024-03-17T01:48:50;7.25;;;4.55;;
34019;SDS011;20895;51.034;3.742;2024-03-17T01:51:16;8.40;;;4.88;;
34019;SDS011;20895;51.034;3.742;2024-03-17T01:53:42;7.70;;;5.25;;
34019;SDS011;20895;51.034;3.742;2024-03-17T01:56:08;9.48;;;5.70;;
34019;SDS011;20895;51.034;3.742;2024-03-17T01:58:35;7.82;;;5.22;;
34019;SDS011;20895;51.034;3.742;2024-03-17T02:01:01;7.72;;;4.93;;
34019;SDS011;20895;51.034;3.742;2024-03-17T02:03:26;9.75;;;4.95;;
34019;SDS011;20895;51.034;3.742;2024-03-17T02:05:52;9.52;;;5.05;;
34019;SDS011;20895;51.034;3.742;2024-03-17T02:08:17;6.95;;;4.90;;
34019;SDS011;20895;51.034;3.742;2024-03-17T02:10:44;6.97;;;4.82;;
34019;SDS011;20895;51.034;3.742;2024-03-17T02:13:09;5.63;;;4.68;;
34019;SDS011;20895;51.034;3.742;2024-03-17T02:15:34;8.70;;;5.88;;
34019;SDS011;20895;51.034;3.742;2024-03-17T02:18:00;8.48;;;5.07;;
34019;SDS011;20895;51.034;3.742;2024-03-17T02:20:25;13.98;;;5.72;;
34019;SDS011;20895;51.034;3.742;2024-03-17T02:23:10;9.75;;;5.88;;
34019;SDS011;20895;51.034;3.742;2024-03-17T02:25:36;7.90;;;5.00;;
34019;SDS011;20895;51.034;3.742;2024-03-17T02:28:01;6.40;;;4.93;;
34019;SDS011;20895;51.034;3.742;2024-03-17T02:30:27;7.60;;;5.50;;
34019;SDS011;20895;51.034;3.742;2024-03-17T02:32:52;8.55;;;5.70;;
34019;SDS011;20895;51.034;3.742;2024-03-17T02:35:18;10.52;;;5.50;;
34019;SDS011;20895;51.034;3.742;2024-03-17T02:37:43;9.82;;;4.63;;
34019;SDS011;20895;51.034;3.742;2024-03-17T02:40:08;7.25;;;4.90;;
34019;SDS011;20895;51.034;3.742;2024-03-17T02:42:35;9.50;;;5.40;;
34019;SDS011;20895;51.034;3.742;2024-03-17T02:45:03;8.52;;;4.65;;
34019;SDS011;20895;51.034;3.742;2024-03-17T02:47:28;8.50;;;6.07;;
34019;SDS011;20895;51.034;3.742;2024-03-17T02:49:54;7.20;;;5.03;;
34019;SDS011;20895;51.034;3.742;2024-03-17T02:52:19;7.63;;;4.97;;
34019;SDS011;20895;51.034;3.742;2024-03-17T02:54:45;8.65;;;5.60;;
34019;SDS011;20895;51.034;3.742;2024-03-17T02:57:10;8.10;;;5.93;;
34019;SDS011;20895;51.034;3.742;2024-03-17T02:59:36;6.50;;;5.10;;
34019;SDS011;20895;51.034;3.742;2024-03-17T03:02:01;7.40;;;5.63;;
34019;SDS011;20895;51.034;3.742;2024-03-17T03:04:27;6.47;;;4.90;;
34019;SDS011;20895;51.034;3.742;2024-03-17T03:06:52;9.95;;;5.65;;
34019;SDS011;20895;51.034;3.742;2024-03-17T03:09:17;6.80;;;4.95;;
34019;SDS011;20895;51.034;3.742;2024-03-17T03:11:50;7.55;;;5.30;;
34019;SDS011;20895;51.034;3.742;2024-03-17T03:14:16;6.72;;;5.43;;
34019;SDS011;20895;51.034;3.742;2024-03-17T03:16:42;9.63;;;5.50;;
34019;SDS011;20895;51.034;3.742;2024-03-17T03:19:07;7.53;;;5.22;;
34019;SDS011;20895;51.034;3.742;2024-03-17T03:21:32;7.55;;;5.28;;
34019;SDS011;20895;51.034;3.742;2024-03-17T03:23:58;7.88;;;5.40;;
34019;SDS011;20895;51.034;3.742;2024-03-17T03:26:23;8.35;;;5.68;;
34019;SDS011;20895;51.034;3.742;2024-03-17T03:28:48;11.80;;;5.40;;
34019;SDS011;20895;51.034;3.742;2024-03-17T03:31:14;8.23;;;5.68;;
34019;SDS011;20895;51.034;3.742;2024-03-17T03:33:40;7.63;;;5.47;;
34019;SDS011;20895;51.034;3.742;2024-03-17T03:38:34;7.80;;;6.00;;
34019;SDS011;20895;51.034;3.742;2024-03-17T03:41:05;7.90;;;5.60;;
34019;SDS011;20895;51.034;3.742;2024-03-17T03:43:30;7.63;;;5.45;;
34019;SDS011;20895;51.034;3.742;2024-03-17T03:45:56;8.13;;;5.18;;
34019;SDS011;20895;51.034;3.742;2024-03-17T03:48:21;8.32;;;5.60;;
34019;SDS011;20895;51.034;3.742;2024-03-17T03:50:47;9.77;;;5.28;;
34019;SDS011;20895;51.034;3.742;2024-03-17T03:53:13;10.32;;;5.93;;
34019;SDS011;20895;51.034;3.742;2024-03-17T03:55:39;8.23;;;5.65;;
34019;SDS011;20895;51.034;3.742;2024-03-17T03:58:04;13.18;;;6.32;;
34019;SDS011;20895;51.034;3.742;2024-03-17T04:00:29;6.72;;;4.80;;
34019;SDS011;20895;51.034;3.742;2024-03-17T04:02:57;6.80;;;4.70;;
34019;SDS011;20895;51.034;3.742;2024-03-17T04:05:23;6.97;;;5.97;;
34019;SDS011;20895;51.034;3.742;2024-03-17T04:07:48;8.30;;;5.45;;
34019;SDS011;20895;51.034;3.742;2024-03-17T04:10:14;9.57;;;5.45;;
34019;SDS011;20895;51.034;3.742;2024-03-17T04:12:40;7.15;;;5.53;;
34019;SDS011;20895;51.034;3.742;2024-03-17T04:15:06;9.55;;;5.70;;
34019;SDS011;20895;51.034;3.742;2024-03-17T04:17:32;8.38;;;5.38;;
34019;SDS011;20895;51.034;3.742;2024-03-17T04:19:57;7.82;;;6.25;;
34019;SDS011;20895;51.034;3.742;2024-03-17T04:22:23;9.18;;;5.20;;
34019;SDS011;20895;51.034;3.742;2024-03-17T04:24:49;9.15;;;5.47;;
34019;SDS011;20895;51.034;3.742;2024-03-17T04:27:21;6.35;;;4.95;;
34019;SDS011;20895;51.034;3.742;2024-03-17T04:29:47;6.82;;;5.00;;
34019;SDS011;20895;51.034;3.742;2024-03-17T04:32:15;8.27;;;5.47;;
34019;SDS011;20895;51.034;3.742;2024-03-17T04:34:41;6.20;;;4.95;;
34019;SDS011;20895;51.034;3.742;2024-03-17T04:37:08;6.65;;;5.43;;
34019;SDS011;20895;51.034;3.742;2024-03-17T04:39:33;6.45;;;4.68;;
34019;SDS011;20895;51.034;3.742;2024-03-17T04:41:59;9.95;;;5.68;;
34019;SDS011;20895;51.034;3.742;2024-03-17T04:44:25;7.53;;;5.00;;
34019;SDS011;20895;51.034;3.742;2024-03-17T04:46:50;7.00;;;5.40;;
34019;SDS011;20895;51.034;3.742;2024-03-17T04:49:15;7.70;;;5.28;;
34019;SDS011;20895;51.034;3.742;2024-03-17T04:51:42;8.45;;;5.50;;
34019;SDS011;20895;51.034;3.742;2024-03-17T04:54:07;9.75;;;5.85;;
34019;SDS011;20895;51.034;3.742;2024-03-17T04:56:32;7.30;;;5.07;;
34019;SDS011;20895;51.034;3.742;2024-03-17T04:58:58;6.65;;;5.30;;
34019;SDS011;20895;51.034;3.742;2024-03-17T05:01:23;8.27;;;4.90;;
34019;SDS011;20895;51.034;3.742;2024-03-17T05:03:52;7.60;;;5.75;;
34019;SDS011;20895;51.034;3.742;2024-03-17T05:06:18;9.98;;;5.30;;
34019;SDS011;20895;51.034;3.742;2024-03-17T05:08:43;8.73;;;5.22;;
34019;SDS011;20895;51.034;3.742;2024-03-17T05:11:09;8.75;;;6.05;;
34019;SDS011;20895;51.034;3.742;2024-03-17T05:13:35;9.02;;;5.00;;
34019;SDS011;20895;51.034;3.742;2024-03-17T05:16:00;8.70;;;5.78;;
34019;SDS011;20895;51.034;3.742;2024-03-17T05:18:26;6.35;;;5.25;;
34019;SDS011;20895;51.034;3.742;2024-03-17T05:21:01;9.20;;;5.47;;
34019;SDS011;20895;51.034;3.742;2024-03-17T05:23:27;7.55;;;5.60;;
34019;SDS011;20895;51.034;3.742;2024-03-17T05:25:53;8.13;;;5.93;;
34019;SDS011;20895;51.034;3.742;2024-03-17T05:28:19;9.55;;;5.55;;
34019;SDS011;20895;51.034;3.742;2024-03-17T05:30:44;8.15;;;5.78;;
34019;SDS011;20895;51.034;3.742;2024-03-17T05:33:10;7.88;;;5.88;;
34019;SDS011;20895;51.034;3.742;2024-03-17T05:35:35;7.25;;;4.78;;
34019;SDS011;20895;51.034;3.742;2024-03-17T05:38:00;8.07;;;5.68;;
34019;SDS011;20895;51.034;3.742;2024-03-17T05:40:25;10.57;;;6.07;;
34019;SDS011;20895;51.034;3.742;2024-03-17T05:42:51;6.82;;;5.22;;
34019;SDS011;20895;51.034;3.742;2024-03-17T05:45:16;7.47;;;5.13;;
34019;SDS011;20895;51.034;3.742;2024-03-17T05:47:42;9.40;;;5.43;;
34019;SDS011;20895;51.034;3.742;2024-03-17T05:50:07;10.30;;;6.18;;
34019;SDS011;20895;51.034;3.742;2024-03-17T05:52:32;8.05;;;5.50;;
34019;SDS011;20895;51.034;3.742;2024-03-17T05:54:58;8.40;;;5.78;;
34019;SDS011;20895;51.034;3.742;2024-03-17T05:57:23;7.93;;;5.00;;
34019;SDS011;20895;51.034;3.742;2024-03-17T05:59:49;9.50;;;4.90;;
34019;SDS011;20895;51.034;3.742;2024-03-17T06:02:14;7.05;;;5.07;;
34019;SDS011;20895;51.034;3.742;2024-03-17T06:04:40;7.95;;;5.57;;
34019;SDS011;20895;51.034;3.742;2024-03-17T06:07:06;6.80;;;5.35;;
34019;SDS011;20895;51.034;3.742;2024-03-17T06:09:31;7.50;;;5.45;;
34019;SDS011;20895;51.034;3.742;2024-03-17T06:11:56;8.65;;;5.25;;
34019;SDS011;20895;51.034;3.742;2024-03-17T06:14:22;9.45;;;5.88;;
34019;SDS011;20895;51.034;3.742;2024-03-17T06:16:47;10.75;;;5.47;;
34019;SDS011;20895;51.034;3.742;2024-03-17T06:19:12;9.68;;;6.18;;
34019;SDS011;20895;51.034;3.742;2024-03-17T06:21:37;8.25;;;5.07;;
34019;SDS011;20895;51.034;3.742;2024-03-17T06:24:04;8.82;;;5.32;;
34019;SDS011;20895;51.034;3.742;2024-03-17T06:26:31;9.40;;;5.22;;
34019;SDS011;20895;51.034;3.742;2024-03-17T06:28:58;8.52;;;5.22;;
34019;SDS011;20895;51.034;3.742;2024-03-17T06:31:24;8.30;;;5.28;;
34019;SDS011;20895;51.034;3.742;2024-03-17T06:33:49;12.70;;;5.10;;
34019;SDS011;20895;51.034;3.742;2024-03-17T06:36:15;7.68;;;5.25;;
34019;SDS011;20895;51.034;3.742;2024-03-17T06:38:40;7.18;;;4.88;;
34019;SDS011;20895;51.034;3.742;2024-03-17T06:41:06;9.40;;;5.60;;
34019;SDS011;20895;51.034;3.742;2024-03-17T06:43:31;9.65;;;5.20;;
34019;SDS011;20895;51.034;3.742;2024-03-17T06:45:58;11.20;;;5.43;;
34019;SDS011;20895;51.034;3.742;2024-03-17T06:48:27;10.18;;;5.75;;
34019;SDS011;20895;51.034;3.742;2024-03-17T06:50:53;9.43;;;5.32;;
34019;SDS011;20895;51.034;3.742;2024-03-17T06:53:22;10.68;;;4.80;;
34019;SDS011;20895;51.034;3.742;2024-03-17T06:55:57;6.85;;;4.57;;
34019;SDS011;20895;51.034;3.742;2024-03-17T06:58:22;6.80;;;4.90;;
34019;SDS011;20895;51.034;3.742;2024-03-17T07:01:00;7.80;;;4.80;;
34019;SDS011;20895;51.034;3.742;2024-03-17T07:03:26;7.63;;;4.43;;
34019;SDS011;20895;51.034;3.742;2024-03-17T07:05:52;8.00;;;5.20;;
34019;SDS011;20895;51.034;3.742;2024-03-17T07:08:18;7.38;;;4.70;;
34019;SDS011;20895;51.034;3.742;2024-03-17T07:10:54;6.90;;;4.63;;
34019;SDS011;20895;51.034;3.742;2024-03-17T07:13:19;6.57;;;4.03;;
34019;SDS011;20895;51.034;3.742;2024-03-17T07:15:47;8.77;;;4.60;;
34019;SDS011;20895;51.034;3.742;2024-03-17T07:18:13;7.18;;;4.10;;
34019;SDS011;20895;51.034;3.742;2024-03-17T07:20:38;10.15;;;5.00;;
34019;SDS011;20895;51.034;3.742;2024-03-17T07:23:04;6.15;;;4.78;;
34019;SDS011;20895;51.034;3.742;2024-03-17T07:25:29;9.52;;;4.97;;
34019;SDS011;20895;51.034;3.742;2024-03-17T07:27:55;7.32;;;4.97;;
34019;SDS011;20895;51.034;3.742;2024-03-17T07:30:20;9.82;;;4.55;;
34019;SDS011;20895;51.034;3.742;2024-03-17T07:32:45;8.60;;;4.38;;
34019;SDS011;20895;51.034;3.742;2024-03-17T07:35:10;9.05;;;4.60;;
34019;SDS011;20895;51.034;3.742;2024-03-17T07:37:36;9.77;;;4.43;;
34019;SDS011;20895;51.034;3.742;2024-03-17T07:40:03;6.95;;;4.60;;
34019;SDS011;20895;51.034;3.742;2024-03-17T07:42:28;6.38;;;4.38;;
34019;SDS011;20895;51.034;3.742;2024-03-17T07:44:54;6.30;;;4.30;;
34019;SDS011;20895;51.034;3.742;2024-03-17T07:47:19;7.13;;;4.30;;
34019;SDS011;20895;51.034;3.742;2024-03-17T07:49:46;8.65;;;4.80;;
34019;SDS011;20895;51.034;3.742;2024-03-17T07:52:11;6.90;;;4.15;;
34019;SDS011;20895;51.034;3.742;2024-03-17T07:54:36;6.55;;;4.45;;
34019;SDS011;20895;51.034;3.742;2024-03-17T07:57:02;7.00;;;4.60;;
34019;SDS011;20895;51.034;3.742;2024-03-17T07:59:27;6.18;;;4.38;;
34019;SDS011;20895;51.034;3.742;2024-03-17T08:01:54;5.60;;;4.20;;
34019;SDS011;20895;51.034;3.742;2024-03-17T08:04:19;9.38;;;4.15;;
34019;SDS011;20895;51.034;3.742;2024-03-17T08:06:44;9.13;;;4.82;;
34019;SDS011;20895;51.034;3.742;2024-03-17T08:09:09;16.23;;;6.18;;
34019;SDS011;20895;51.034;3.742;2024-03-17T08:11:38;10.13;;;4.38;;
34019;SDS011;20895;51.034;3.742;2024-03-17T08:14:11;8.10;;;4.03;;
34019;SDS011;20895;51.034;3.742;2024-03-17T08:16:36;8.10;;;4.70;;
34019;SDS011;20895;51.034;3.742;2024-03-17T08:19:02;7.45;;;4.50;;
34019;SDS011;20895;51.034;3.742;2024-03-17T08:21:28;6.50;;;3.95;;
34019;SDS011;20895;51.034;3.742;2024-03-17T08:23:54;7.53;;;4.15;;
34019;SDS011;20895;51.034;3.742;2024-03-17T08:26:20;7.40;;;4.30;;
34019;SDS011;20895;51.034;3.742;2024-03-17T08:28:45;10.57;;;4.93;;
34019;SDS011;20895;51.034;3.742;2024-03-17T08:31:11;7.07;;;4.60;;
34019;SDS011;20895;51.034;3.742;2024-03-17T08:33:36;7.45;;;4.93;;
34019;SDS011;20895;51.034;3.742;2024-03-17T08:36:02;7.28;;;4.88;;
34019;SDS011;20895;51.034;3.742;2024-03-17T08:38:29;6.88;;;4.50;;
34019;SDS011;20895;51.034;3.742;2024-03-17T08:40:55;7.95;;;5.90;;
34019;SDS011;20895;51.034;3.742;2024-03-17T08:43:20;8.30;;;6.18;;
34019;SDS011;20895;51.034;3.742;2024-03-17T08:48:21;8.00;;;5.18;;
34019;SDS011;20895;51.034;3.742;2024-03-17T08:50:50;8.27;;;4.65;;
34019;SDS011;20895;51.034;3.742;2024-03-17T08:53:16;9.43;;;4.72;;
34019;SDS011;20895;51.034;3.742;2024-03-17T08:55:41;7.57;;;4.70;;
34019;SDS011;20895;51.034;3.742;2024-03-17T08:58:06;10.02;;;5.65;;
34019;SDS011;20895;51.034;3.742;2024-03-17T09:00:32;8.23;;;4.85;;
34019;SDS011;20895;51.034;3.742;2024-03-17T09:02:57;7.90;;;4.80;;
34019;SDS011;20895;51.034;3.742;2024-03-17T09:05:23;8.70;;;5.43;;
34019;SDS011;20895;51.034;3.742;2024-03-17T09:07:49;7.82;;;5.57;;
34019;SDS011;20895;51.034;3.742;2024-03-17T09:10:14;9.27;;;5.53;;
34019;SDS011;20895;51.034;3.742;2024-03-17T09:12:40;11.68;;;6.10;;
34019;SDS011;20895;51.034;3.742;2024-03-17T09:15:05;9.00;;;5.80;;
34019;SDS011;20895;51.034;3.742;2024-03-17T09:17:31;7.50;;;6.28;;
34019;SDS011;20895;51.034;3.742;2024-03-17T09:19:56;12.13;;;6.78;;
34019;SDS011;20895;51.034;3.742;2024-03-17T09:22:21;10.50;;;6.50;;
34019;SDS011;20895;51.034;3.742;2024-03-17T09:24:47;10.63;;;5.70;;
34019;SDS011;20895;51.034;3.742;2024-03-17T09:27:12;10.88;;;5.53;;
34019;SDS011;20895;51.034;3.742;2024-03-17T09:29:45;8.60;;;5.47;;
34019;SDS011;20895;51.034;3.742;2024-03-17T09:32:10;8.95;;;6.13;;
34019;SDS011;20895;51.034;3.742;2024-03-17T09:34:40;10.25;;;5.90;;
34019;SDS011;20895;51.034;3.742;2024-03-17T09:37:06;9.02;;;5.20;;
34019;SDS011;20895;51.034;3.742;2024-03-17T09:39:32;8.85;;;5.03;;
34019;SDS011;20895;51.034;3.742;2024-03-17T09:41:57;8.93;;;5.47;;
34019;SDS011;20895;51.034;3.742;2024-03-17T09:44:23;9.13;;;5.55;;
34019;SDS011;20895;51.034;3.742;2024-03-17T09:46:49;12.73;;;6.10;;
34019;SDS011;20895;51.034;3.742;2024-03-17T09:49:15;9.40;;;5.47;;
34019;SDS011;20895;51.034;3.742;2024-03-17T09:51:44;9.93;;;5.50;;
34019;SDS011;20895;51.034;3.742;2024-03-17T09:54:18;8.38;;;5.00;;
34019;SDS011;20895;51.034;3.742;2024-03-17T09:56:44;9.25;;;5.70;;
34019;SDS011;20895;51.034;3.742;2024-03-17T09:59:09;12.07;;;5.63;;
34019;SDS011;20895;51.034;3.742;2024-03-17T10:01:35;9.15;;;5.70;;
34019;SDS011;20895;51.034;3.742;2024-03-17T10:04:00;7.93;;;6.13;;
34019;SDS011;20895;51.034;3.742;2024-03-17T10:06:35;7.75;;;5.72;;
34019;SDS011;20895;51.034;3.742;2024-03-17T10:09:09;9.30;;;6.10;;
34019;SDS011;20895;51.034;3.742;2024-03-17T10:11:45;10.00;;;6.00;;
34019;SDS011;20895;51.034;3.742;2024-03-17T10:14:12;7.32;;;5.30;;
34019;SDS011;20895;51.034;3.742;2024-03-17T10:16:39;6.72;;;5.15;;
34019;SDS011;20895;51.034;3.742;2024-03-17T10:19:15;11.50;;;6.00;;
34019;SDS011;20895;51.034;3.742;2024-03-17T10:21:41;9.40;;;4.72;;
34019;SDS011;20895;51.034;3.742;2024-03-17T10:26:49;8.32;;;5.15;;
34019;SDS011;20895;51.034;3.742;2024-03-17T10:29:29;7.03;;;4.95;;
34019;SDS011;20895;51.034;3.742;2024-03-17T10:31:59;8.98;;;4.65;;
34019;SDS011;20895;51.034;3.742;2024-03-17T10:34:26;7.70;;;5.35;;
34019;SDS011;20895;51.034;3.742;2024-03-17T10:39:39;7.47;;;4.30;;
34019;SDS011;20895;51.034;3.742;2024-03-17T10:42:05;8.55;;;4.13;;
34019;SDS011;20895;51.034;3.742;2024-03-17T10:44:31;10.70;;;4.30;;
34019;SDS011;20895;51.034;3.742;2024-03-17T10:46:56;9.80;;;4.10;;
34019;SDS011;20895;51.034;3.742;2024-03-17T10:49:23;6.05;;;4.22;;
34019;SDS011;20895;51.034;3.742;2024-03-17T10:51:51;5.95;;;4.45;;
34019;SDS011;20895;51.034;3.742;2024-03-17T10:54:23;6.53;;;3.97;;
34019;SDS011;20895;51.034;3.742;2024-03-17T10:56:48;6.72;;;4.47;;
34019;SDS011;20895;51.034;3.742;2024-03-17T10:59:13;8.05;;;4.72;;
34019;SDS011;20895;51.034;3.742;2024-03-17T11:01:40;6.63;;;4.07;;
34019;SDS011;20895;51.034;3.742;2024-03-17T11:04:07;13.90;;;6.03;;
34019;SDS011;20895;51.034;3.742;2024-03-17T11:06:33;7.20;;;3.97;;
34019;SDS011;20895;51.034;3.742;2024-03-17T11:08:58;7.53;;;4.60;;
34019;SDS011;20895;51.034;3.742;2024-03-17T11:11:37;10.63;;;4.55;;
34019;SDS011;20895;51.034;3.742;2024-03-17T11:14:17;11.40;;;5.22;;
34019;SDS011;20895;51.034;3.742;2024-03-17T11:16:45;6.38;;;4.57;;
34019;SDS011;20895;51.034;3.742;2024-03-17T11:19:17;6.85;;;4.47;;
34019;SDS011;20895;51.034;3.742;2024-03-17T11:21:42;6.60;;;3.78;;
34019;SDS011;20895;51.034;3.742;2024-03-17T11:24:18;4.65;;;3.47;;
34019;SDS011;20895;51.034;3.742;2024-03-17T11:26:43;6.07;;;3.78;;
34019;SDS011;20895;51.034;3.742;2024-03-17T11:29:23;7.63;;;4.03;;
34019;SDS011;20895;51.034;3.742;2024-03-17T11:31:50;5.55;;;3.88;;
34019;SDS011;20895;51.034;3.742;2024-03-17T11:34:29;7.28;;;3.50;;
34019;SDS011;20895;51.034;3.742;2024-03-17T11:36:56;7.82;;;3.42;;
34019;SDS011;20895;51.034;3.742;2024-03-17T11:39:21;5.22;;;3.53;;
34019;SDS011;20895;51.034;3.742;2024-03-17T11:42:06;7.18;;;4.38;;
34019;SDS011;20895;51.034;3.742;2024-03-17T11:44:37;4.93;;;3.33;;
34019;SDS011;20895;51.034;3.742;2024-03-17T11:47:03;6.18;;;3.75;;
34019;SDS011;20895;51.034;3.742;2024-03-17T11:49:35;4.53;;;3.72;;
34019;SDS011;20895;51.034;3.742;2024-03-17T11:52:14;5.80;;;2.97;;
34019;SDS011;20895;51.034;3.742;2024-03-17T11:54:40;7.60;;;3.63;;
34019;SDS011;20895;51.034;3.742;2024-03-17T11:57:06;6.38;;;3.42;;
34019;SDS011;20895;51.034;3.742;2024-03-17T11:59:32;4.97;;;3.28;;
34019;SDS011;20895;51.034;3.742;2024-03-17T12:01:57;4.45;;;2.83;;
34019;SDS011;20895;51.034;3.742;2024-03-17T12:04:24;5.38;;;3.03;;
34019;SDS011;20895;51.034;3.742;2024-03-17T12:11:45;5.55;;;2.40;;
34019;SDS011;20895;51.034;3.742;2024-03-17T12:14:17;6.97;;;2.45;;
34019;SDS011;20895;51.034;3.742;2024-03-17T12:16:47;5.28;;;2.28;;
34019;SDS011;20895;51.034;3.742;2024-03-17T12:19:14;4.03;;;2.30;;
34019;SDS011;20895;51.034;3.742;2024-03-17T12:21:42;4.82;;;2.25;;
34019;SDS011;20895;51.034;3.742;2024-03-17T12:24:30;5.50;;;2.55;;
34019;SDS011;20895;51.034;3.742;2024-03-17T12:26:54;4.82;;;2.45;;
34019;SDS011;20895;51.034;3.742;2024-03-17T12:29:26;5.35;;;2.88;;
34019;SDS011;20895;51.034;3.742;2024-03-17T12:31:52;8.43;;;3.70;;
34019;SDS011;20895;51.034;3.742;2024-03-17T12:34:22;4.15;;;2.53;;
34019;SDS011;20895;51.034;3.742;2024-03-17T12:36:47;6.97;;;2.50;;
34019;SDS011;20895;51.034;3.742;2024-03-17T12:39:22;7.40;;;2.50;;
34019;SDS011;20895;51.034;3.742;2024-03-17T12:42:10;3.58;;;2.65;;
34019;SDS011;20895;51.034;3.742;2024-03-17T12:44:39;6.90;;;2.78;;
34019;SDS011;20895;51.034;3.742;2024-03-17T12:47:14;5.53;;;2.47;;
34019;SDS011;20895;51.034;3.742;2024-03-17T12:49:47;5.93;;;2.72;;
34019;SDS011;20895;51.034;3.742;2024-03-17T12:52:17;6.40;;;2.60;;
34019;SDS011;20895;51.034;3.742;2024-03-17T12:54:42;4.82;;;2.53;;
34019;SDS011;20895;51.034;3.742;2024-03-17T12:57:15;5.03;;;2.47;;
34019;SDS011;20895;51.034;3.742;2024-03-17T12:59:59;5.13;;;2.08;;
34019;SDS011;20895;51.034;3.742;2024-03-17T13:02:43;6.72;;;2.13;;
34019;SDS011;20895;51.034;3.742;2024-03-17T13:07:41;5.57;;;2.25;;
34019;SDS011;20895;51.034;3.742;2024-03-17T13:10:06;4.85;;;1.88;;
34019;SDS011;20895;51.034;3.742;2024-03-17T13:12:33;3.92;;;1.90;;
34019;SDS011;20895;51.034;3.742;2024-03-17T13:14:58;3.88;;;1.67;;
34019;SDS011;20895;51.034;3.742;2024-03-17T13:17:23;5.45;;;2.78;;
34019;SDS011;20895;51.034;3.742;2024-03-17T13:19:48;2.70;;;1.63;;
34019;SDS011;20895;51.034;3.742;2024-03-17T13:22:14;4.53;;;2.17;;
34019;SDS011;20895;51.034;3.742;2024-03-17T13:24:39;3.45;;;1.45;;
34019;SDS011;20895;51.034;3.742;2024-03-17T13:27:05;5.40;;;2.35;;
34019;SDS011;20895;51.034;3.742;2024-03-17T13:29:31;3.13;;;1.73;;
34019;SDS011;20895;51.034;3.742;2024-03-17T13:31:58;4.28;;;1.83;;
34019;SDS011;20895;51.034;3.742;2024-03-17T13:34:23;6.10;;;2.00;;
34019;SDS011;20895;51.034;3.742;2024-03-17T13:36:52;4.05;;;1.80;;
34019;SDS011;20895;51.034;3.742;2024-03-17T13:39:18;4.68;;;2.13;;
34019;SDS011;20895;51.034;3.742;2024-03-17T13:41:45;5.75;;;1.98;;
34019;SDS011;20895;51.034;3.742;2024-03-17T13:44:11;6.05;;;2.25;;
34019;SDS011;20895;51.034;3.742;2024-03-17T13:46:37;3.90;;;1.98;;
34019;SDS011;20895;51.034;3.742;2024-03-17T13:49:06;3.70;;;1.58;;
34019;SDS011;20895;51.034;3.742;2024-03-17T13:51:32;2.60;;;1.70;;
34019;SDS011;20895;51.034;3.742;2024-03-17T13:53:57;5.05;;;2.00;;
34019;SDS011;20895;51.034;3.742;2024-03-17T13:56:22;6.00;;;1.98;;
34019;SDS011;20895;51.034;3.742;2024-03-17T13:58:49;4.45;;;2.55;;
34019;SDS011;20895;51.034;3.742;2024-03-17T14:01:15;9.32;;;2.22;;
34019;SDS011;20895;51.034;3.742;2024-03-17T14:03:41;7.07;;;2.60;;
34019;SDS011;20895;51.034;3.742;2024-03-17T14:06:08;8.35;;;2.95;;
34019;SDS011;20895;51.034;3.742;2024-03-17T14:08:34;6.13;;;1.92;;
34019;SDS011;20895;51.034;3.742;2024-03-17T14:11:00;2.42;;;1.50;;
34019;SDS011;20895;51.034;3.742;2024-03-17T14:13:26;7.63;;;1.90;;
34019;SDS011;20895;51.034;3.742;2024-03-17T14:15:51;9.02;;;3.40;;
34019;SDS011;20895;51.034;3.742;2024-03-17T14:18:16;3.92;;;2.28;;
34019;SDS011;20895;51.034;3.742;2024-03-17T14:20:41;5.07;;;1.92;;
34019;SDS011;20895;51.034;3.742;2024-03-17T14:23:07;4.75;;;2.25;;
34019;SDS011;20895;51.034;3.742;2024-03-17T14:25:32;7.53;;;2.10;;
34019;SDS011;20895;51.034;3.742;2024-03-17T14:27:57;5.22;;;2.35;;
34019;SDS011;20895;51.034;3.742;2024-03-17T14:30:23;7.18;;;2.20;;
34019;SDS011;20895;51.034;3.742;2024-03-17T14:32:48;8.35;;;2.30;;
34019;SDS011;20895;51.034;3.742;2024-03-17T14:35:14;5.28;;;2.25;;
34019;SDS011;20895;51.034;3.742;2024-03-17T14:37:40;5.00;;;2.08;;
34019;SDS011;20895;51.034;3.742;2024-03-17T14:40:08;4.72;;;1.67;;
34019;SDS011;20895;51.034;3.742;2024-03-17T14:42:39;3.13;;;1.60;;
34019;SDS011;20895;51.034;3.742;2024-03-17T14:45:06;4.20;;;2.03;;
34019;SDS011;20895;51.034;3.742;2024-03-17T14:47:32;7.93;;;4.07;;
34019;SDS011;20895;51.034;3.742;2024-03-17T14:49:57;8.90;;;1.98;;
34019;SDS011;20895;51.034;3.742;2024-03-17T14:52:22;5.70;;;1.75;;
34019;SDS011;20895;51.034;3.742;2024-03-17T14:54:49;7.13;;;1.85;;
34019;SDS011;20895;51.034;3.742;2024-03-17T14:57:16;4.93;;;1.90;;
34019;SDS011;20895;51.034;3.742;2024-03-17T14:59:43;6.40;;;2.50;;
34019;SDS011;20895;51.034;3.742;2024-03-17T15:02:08;5.57;;;2.20;;